Terminal Aerodrome Forecast
Issued by NWS

Home | Current Version | Previous Version | Text Only | Print | Product List | Glossary On
Versions: 1 2 3 4 5 6 7 8 9 10 11 12 13 14 15 16 17 18 19 20 21 22
000
FTUS43 KGRR 012320
TAFBTL
TAF
KBTL 012320Z 0200/0224 29005KT P6SM VCSH FEW045 SCT060 BKN090
     FM020600 20004KT 4SM BR SCT250
     FM020800 22004KT 2SM BR SCT050
     FM021000 21003KT 1SM BR SCT050
     FM021500 25007KT 4SM HZ BKN035
     FM021800 27009KT P6SM BKN050=

USA.gov is the U.S. government's official web portal to all federal, state and local government web resources and services.